Time;durP1;ratioP1;P1;durP2;ratioP2;P2;SDS_P1;SDS_P2;PMS_P1;PMS_P2;Temp;Humidity;BMP_temperature;BMP_pressure;BME280_temperature;BME280_humidity;BME280_pressure;Samples;Min_cycle;Max_cycle;Signal;HPM_P1;HPM_P2
2024/01/02 00:01:49;;;;;;;9.67;2.10;;;5.60;99.90;;;;;;5033599;28;20195;-83
2024/01/02 00:04:15;;;;;;;5.60;1.70;;;5.60;99.90;;;;;;5034827;28;20210;-81
2024/01/02 00:06:41;;;;;;;5.10;1.60;;;5.60;99.90;;;;;;5033661;28;20192;-82
2024/01/02 00:09:07;;;;;;;4.53;1.60;;;5.60;99.90;;;;;;5034601;28;20226;-82
2024/01/02 00:11:32;;;;;;;7.13;1.63;;;5.60;99.90;;;;;;5033193;28;20182;-82
2024/01/02 00:13:58;;;;;;;4.50;1.40;;;5.60;99.90;;;;;;5034496;28;20190;-81
2024/01/02 00:16:23;;;;;;;3.53;1.50;;;5.60;99.90;;;;;;5033349;28;20200;-83
2024/01/02 00:18:49;;;;;;;6.77;1.60;;;5.60;99.90;;;;;;5034394;28;20205;-82
2024/01/02 00:21:14;;;;;;;5.93;1.60;;;5.60;99.90;;;;;;5034209;28;20196;-82
2024/01/02 00:23:40;;;;;;;6.40;1.77;;;5.60;99.90;;;;;;5033252;28;20210;-82
2024/01/02 00:26:06;;;;;;;5.80;1.53;;;5.50;99.90;;;;;;5034276;28;20314;-83
2024/01/02 00:28:31;;;;;;;5.93;1.27;;;5.60;99.90;;;;;;5032904;28;20180;-82
2024/01/02 00:30:57;;;;;;;5.00;1.47;;;5.50;99.90;;;;;;5032328;28;20552;-82
2024/01/02 00:33:22;;;;;;;4.93;1.60;;;5.50;99.90;;;;;;5032871;28;20294;-81
2024/01/02 00:35:48;;;;;;;5.70;1.47;;;5.50;99.90;;;;;;5032877;28;20200;-81
2024/01/02 00:38:13;;;;;;;4.77;1.37;;;5.50;99.90;;;;;;5032967;28;20211;-82
2024/01/02 00:40:39;;;;;;;3.23;1.20;;;5.60;99.90;;;;;;5032425;28;20177;-82
2024/01/02 00:43:04;;;;;;;4.60;1.27;;;5.60;99.90;;;;;;5032593;28;20206;-82
2024/01/02 00:45:30;;;;;;;2.67;1.60;;;5.60;99.90;;;;;;5032735;28;20265;-82
2024/01/02 00:47:56;;;;;;;4.60;1.50;;;5.60;99.90;;;;;;5032636;28;20189;-82
2024/01/02 00:50:22;;;;;;;3.77;1.37;;;5.60;99.90;;;;;;5032581;28;20526;-81
2024/01/02 00:52:47;;;;;;;2.57;1.30;;;5.60;99.90;;;;;;5033841;28;20259;-82
2024/01/02 00:55:13;;;;;;;4.43;1.37;;;5.70;99.90;;;;;;5032524;28;20177;-81
2024/01/02 00:57:39;;;;;;;4.10;1.43;;;5.70;99.90;;;;;;5032508;28;20233;-83
2024/01/02 01:00:06;;;;;;;3.03;1.30;;;5.60;99.90;;;;;;5033516;28;20184;-81
2024/01/02 01:02:31;;;;;;;4.30;1.20;;;5.60;99.90;;;;;;5032311;28;20180;-82
2024/01/02 01:04:57;;;;;;;2.37;1.20;;;5.60;99.90;;;;;;5032470;28;20641;-81
2024/01/02 01:07:23;;;;;;;3.90;1.43;;;5.70;99.90;;;;;;5032107;28;20193;-81
2024/01/02 01:09:49;;;;;;;3.43;1.00;;;5.70;99.90;;;;;;5033499;28;20178;-81
2024/01/02 01:12:14;;;;;;;2.30;1.27;;;5.60;99.90;;;;;;5032558;28;20177;-81
2024/01/02 01:14:40;;;;;;;4.37;1.27;;;5.60;99.90;;;;;;5033477;28;20177;-82
2024/01/02 01:17:06;;;;;;;4.83;1.43;;;5.60;99.90;;;;;;5032409;28;20224;-82
2024/01/02 01:19:32;;;;;;;3.70;1.40;;;5.70;99.90;;;;;;5033232;28;20190;-83
2024/01/02 01:21:58;;;;;;;4.67;1.50;;;5.60;99.90;;;;;;5033186;28;20188;-81
2024/01/02 01:24:23;;;;;;;5.23;1.23;;;5.60;99.90;;;;;;5031704;28;20209;-82
2024/01/02 01:26:52;;;;;;;4.23;1.37;;;5.60;99.90;;;;;;5033026;28;20228;-81
2024/01/02 01:29:22;;;;;;;3.13;1.50;;;5.60;99.90;;;;;;5032841;28;20179;-82
2024/01/02 01:31:48;;;;;;;6.43;1.50;;;5.60;99.90;;;;;;5031636;28;20206;-83
2024/01/02 01:34:13;;;;;;;5.00;1.40;;;5.60;99.90;;;;;;5033120;28;20649;-81
2024/01/02 01:36:39;;;;;;;3.20;1.40;;;5.60;99.90;;;;;;5031923;28;20217;-82
2024/01/02 01:39:04;;;;;;;3.30;1.20;;;5.60;99.90;;;;;;5031895;28;20193;-82
2024/01/02 01:41:30;;;;;;;5.07;1.80;;;5.60;99.90;;;;;;5031738;28;20271;-82
2024/01/02 01:43:57;;;;;;;4.93;1.37;;;5.60;99.90;;;;;;5031563;28;20676;-82
2024/01/02 01:46:24;;;;;;;3.03;1.40;;;5.60;99.90;;;;;;5031307;28;20571;-81
2024/01/02 01:48:50;;;;;;;3.53;1.23;;;5.60;99.90;;;;;;5032616;28;20184;-79
2024/01/02 01:51:16;;;;;;;3.83;1.30;;;5.60;99.90;;;;;;5031090;28;20180;-81
2024/01/02 01:53:44;;;;;;;3.67;1.10;;;5.60;99.90;;;;;;5031090;28;20177;-81
2024/01/02 01:56:09;;;;;;;3.13;1.10;;;5.60;99.90;;;;;;5031575;28;20206;-81
2024/01/02 01:58:35;;;;;;;5.33;1.33;;;5.60;99.90;;;;;;5032631;28;20188;-81
2024/01/02 02:01:01;;;;;;;1.97;1.13;;;5.60;99.90;;;;;;5031306;28;20187;-81
2024/01/02 02:03:27;;;;;;;3.73;1.50;;;5.60;99.90;;;;;;5032314;28;20275;-82
2024/01/02 02:05:53;;;;;;;3.27;1.30;;;5.60;99.90;;;;;;5032273;28;20570;-82
2024/01/02 02:08:18;;;;;;;2.30;1.27;;;5.50;99.90;;;;;;5032191;28;20242;-83
2024/01/02 02:10:44;;;;;;;4.10;1.33;;;5.60;99.90;;;;;;5031975;28;20238;-81
2024/01/02 02:13:10;;;;;;;2.23;1.07;;;5.50;99.90;;;;;;5023655;28;20227;-81
2024/01/02 02:15:40;;;;;;;3.90;1.10;;;5.50;99.90;;;;;;5028853;28;20188;-81
2024/01/02 02:18:06;;;;;;;2.97;1.30;;;5.60;99.90;;;;;;5020434;28;20667;-81
2024/01/02 02:20:31;;;;;;;5.07;1.30;;;5.60;99.90;;;;;;5028597;28;20262;-82
2024/01/02 02:22:57;;;;;;;2.60;0.90;;;5.50;99.90;;;;;;5032395;28;20290;-81
2024/01/02 02:25:22;;;;;;;2.37;1.47;;;5.60;99.90;;;;;;5031146;28;20172;-81
2024/01/02 02:27:49;;;;;;;4.70;1.10;;;5.50;99.90;;;;;;5032163;28;20227;-81
2024/01/02 02:30:14;;;;;;;2.20;1.07;;;5.50;99.90;;;;;;5032069;28;20191;-81
2024/01/02 02:32:40;;;;;;;3.00;1.00;;;5.60;99.90;;;;;;5032045;28;20219;-81
2024/01/02 02:35:06;;;;;;;3.10;1.10;;;5.60;99.90;;;;;;5031993;28;20179;-83
2024/01/02 02:37:32;;;;;;;2.13;0.93;;;5.50;99.90;;;;;;5030630;28;20265;-82
2024/01/02 02:39:57;;;;;;;2.47;1.17;;;5.50;99.90;;;;;;5031877;28;20206;-81
2024/01/02 02:42:23;;;;;;;3.93;1.10;;;5.50;99.90;;;;;;5032149;28;20174;-82
2024/01/02 02:44:48;;;;;;;3.90;1.10;;;5.50;99.90;;;;;;5031039;28;20251;-81
2024/01/02 02:47:14;;;;;;;1.03;0.80;;;5.50;99.90;;;;;;5030752;28;20557;-82
2024/01/02 02:49:41;;;;;;;2.83;1.10;;;5.50;99.90;;;;;;5031774;28;20211;-81
2024/01/02 02:52:06;;;;;;;2.50;0.83;;;5.50;99.90;;;;;;5030550;28;20177;-81
2024/01/02 02:54:32;;;;;;;2.40;1.00;;;5.50;99.90;;;;;;5031779;28;20562;-82
2024/01/02 02:56:58;;;;;;;2.77;1.47;;;5.50;99.90;;;;;;5032125;28;20197;-81
2024/01/02 02:59:23;;;;;;;1.77;0.80;;;5.50;99.90;;;;;;5030672;28;20179;-82
2024/01/02 03:01:49;;;;;;;3.17;1.00;;;5.40;99.90;;;;;;5030647;28;20288;-81
2024/01/02 03:04:14;;;;;;;1.53;1.00;;;5.40;99.90;;;;;;5030715;28;20210;-82
2024/01/02 03:06:40;;;;;;;0.93;0.80;;;5.50;99.90;;;;;;5035022;28;20189;-81
2024/01/02 03:09:06;;;;;;;2.30;1.20;;;5.50;99.90;;;;;;5034640;28;20242;-81
2024/01/02 03:11:32;;;;;;;2.70;1.03;;;5.40;99.90;;;;;;5035641;28;20203;-81
2024/01/02 03:13:58;;;;;;;3.20;1.00;;;5.40;99.90;;;;;;5018089;28;20187;-81
2024/01/02 03:16:24;;;;;;;3.00;1.20;;;5.40;99.90;;;;;;5034576;28;20216;-81
2024/01/02 03:18:50;;;;;;;2.10;0.90;;;5.40;99.90;;;;;;5022310;28;20186;-81
2024/01/02 03:21:16;;;;;;;2.47;1.20;;;5.50;99.90;;;;;;5015365;28;20181;-81
2024/01/02 03:23:41;;;;;;;2.00;1.00;;;5.40;99.90;;;;;;5014265;28;20232;-81
2024/01/02 03:26:10;;;;;;;1.73;1.00;;;5.40;99.90;;;;;;5014096;28;20718;-81
2024/01/02 03:28:36;;;;;;;1.30;1.00;;;5.40;99.90;;;;;;5015371;28;20182;-81
2024/01/02 03:31:03;;;;;;;2.10;1.00;;;5.40;99.90;;;;;;5015355;28;20183;-82
2024/01/02 03:33:29;;;;;;;1.33;0.90;;;5.40;99.90;;;;;;5015321;28;20284;-81
2024/01/02 03:35:54;;;;;;;1.60;0.93;;;5.40;99.90;;;;;;5013885;28;20212;-81
2024/01/02 03:38:20;;;;;;;2.60;1.20;;;5.30;99.90;;;;;;5014317;28;20644;-82
2024/01/02 03:40:46;;;;;;;1.50;0.90;;;5.30;99.90;;;;;;5014009;28;20238;-82
2024/01/02 03:43:11;;;;;;;5.03;1.13;;;5.20;99.90;;;;;;5013890;28;20298;-83
2024/01/02 03:45:37;;;;;;;1.33;1.00;;;5.20;99.90;;;;;;5014064;28;20266;-81
2024/01/02 03:48:03;;;;;;;2.43;1.00;;;5.20;99.90;;;;;;5013835;28;20191;-81
2024/01/02 03:50:28;;;;;;;1.43;0.90;;;5.20;99.90;;;;;;5014871;28;20175;-82
2024/01/02 03:52:54;;;;;;;1.27;0.90;;;5.10;99.90;;;;;;5014097;28;20183;-81
2024/01/02 03:55:19;;;;;;;1.93;0.90;;;5.10;99.90;;;;;;5013837;28;20184;-84
2024/01/02 03:57:45;;;;;;;1.80;1.00;;;5.10;99.90;;;;;;5014913;28;20284;-81
2024/01/02 04:00:11;;;;;;;1.37;0.90;;;5.10;99.90;;;;;;5013426;28;20266;-81
2024/01/02 04:02:37;;;;;;;2.50;1.10;;;5.10;99.90;;;;;;5014961;28;20203;-82
2024/01/02 04:05:03;;;;;;;3.10;1.00;;;5.10;99.90;;;;;;5014869;28;20222;-82
2024/01/02 04:07:29;;;;;;;1.27;0.87;;;5.00;99.90;;;;;;5014792;28;20629;-81
2024/01/02 04:09:55;;;;;;;2.13;1.00;;;5.00;99.90;;;;;;5014977;28;20214;-81
2024/01/02 04:12:21;;;;;;;1.43;1.00;;;5.00;99.90;;;;;;5013611;28;20237;-81
2024/01/02 04:14:46;;;;;;;1.67;1.10;;;4.90;99.90;;;;;;5014588;28;20588;-81
2024/01/02 04:17:12;;;;;;;1.83;1.20;;;4.90;99.90;;;;;;5014062;28;20206;-81
2024/01/02 04:19:37;;;;;;;1.10;1.00;;;4.90;99.90;;;;;;5013214;28;20644;-81
2024/01/02 04:22:04;;;;;;;1.80;1.00;;;4.90;99.90;;;;;;5014524;28;20178;-81
2024/01/02 04:24:30;;;;;;;1.47;1.00;;;4.90;99.90;;;;;;5014448;28;20409;-81
2024/01/02 04:26:56;;;;;;;2.27;1.00;;;4.90;99.90;;;;;;5013192;28;20196;-81
2024/01/02 04:29:21;;;;;;;1.13;0.80;;;4.90;99.90;;;;;;5014291;28;20552;-82
2024/01/02 04:31:47;;;;;;;1.90;1.00;;;4.90;99.90;;;;;;5012948;28;20555;-82
2024/01/02 04:34:12;;;;;;;0.93;0.70;;;4.90;99.90;;;;;;5014179;28;20183;-82
2024/01/02 04:36:40;;;;;;;2.33;1.03;;;4.80;99.90;;;;;;5013130;28;20301;-81
2024/01/02 04:39:06;;;;;;;1.50;0.80;;;4.90;99.90;;;;;;5014079;28;20172;-81
2024/01/02 04:41:32;;;;;;;1.40;0.80;;;4.80;99.90;;;;;;5026002;28;20178;-81
2024/01/02 04:43:57;;;;;;;1.47;0.73;;;4.70;99.90;;;;;;5025533;28;20201;-81
2024/01/02 04:46:23;;;;;;;1.43;1.00;;;4.80;99.90;;;;;;5032527;28;20194;-82
2024/01/02 04:48:49;;;;;;;2.27;0.90;;;4.70;99.90;;;;;;5020967;28;20179;-81
2024/01/02 04:51:14;;;;;;;1.13;0.80;;;4.70;99.90;;;;;;5028976;28;20177;-81
2024/01/02 04:53:40;;;;;;;1.30;0.80;;;4.60;99.90;;;;;;5032567;28;20686;-81
2024/01/02 04:56:06;;;;;;;1.33;0.90;;;4.70;99.90;;;;;;5032379;28;20218;-81
2024/01/02 04:58:32;;;;;;;1.20;0.83;;;4.70;99.90;;;;;;5032261;28;20201;-81
2024/01/02 05:00:57;;;;;;;0.97;0.70;;;4.60;99.90;;;;;;5033403;28;20170;-81
2024/01/02 05:03:23;;;;;;;1.00;0.90;;;4.60;99.90;;;;;;5033219;28;20221;-81
2024/01/02 05:05:48;;;;;;;2.10;0.70;;;4.60;99.90;;;;;;5032575;28;20233;-81
2024/01/02 05:08:14;;;;;;;0.63;0.60;;;4.60;99.90;;;;;;5031893;28;20284;-81
2024/01/02 05:10:40;;;;;;;0.87;0.60;;;4.60;99.90;;;;;;5031996;28;20178;-81
2024/01/02 05:13:05;;;;;;;1.30;0.57;;;4.60;99.90;;;;;;5032327;28;20185;-81
2024/01/02 05:15:31;;;;;;;0.70;0.50;;;4.60;99.90;;;;;;5033268;28;20635;-80
2024/01/02 05:17:56;;;;;;;0.77;0.63;;;4.60;99.90;;;;;;5031620;28;20283;-81
2024/01/02 05:20:22;;;;;;;1.53;0.50;;;4.60;99.90;;;;;;5016793;28;20175;-82
2024/01/02 05:22:48;;;;;;;0.40;0.40;;;4.50;99.90;;;;;;5011958;28;20590;-81
2024/01/02 05:25:13;;;;;;;0.57;0.47;;;4.50;99.90;;;;;;5013397;28;20201;-81
2024/01/02 05:27:39;;;;;;;1.17;0.50;;;4.50;99.90;;;;;;5012580;28;20195;-81
2024/01/02 05:30:05;;;;;;;1.10;0.40;;;4.50;99.90;;;;;;5013000;28;20178;-81
2024/01/02 05:32:30;;;;;;;0.50;0.40;;;4.40;99.90;;;;;;5011875;28;20176;-81
2024/01/02 05:34:56;;;;;;;1.03;0.40;;;4.50;99.90;;;;;;5013374;28;20236;-81
2024/01/02 05:37:21;;;;;;;0.13;0.13;;;4.40;99.90;;;;;;5012894;28;20214;-81
2024/01/02 05:39:47;;;;;;;0.27;0.23;;;4.40;99.90;;;;;;5011840;28;20199;-81
2024/01/02 05:42:13;;;;;;;0.50;0.40;;;4.40;99.90;;;;;;5019585;28;20194;-82
2024/01/02 05:44:38;;;;;;;0.60;0.40;;;4.40;99.90;;;;;;5023240;28;20200;-81
2024/01/02 05:47:04;;;;;;;1.53;0.60;;;4.40;99.90;;;;;;5031182;28;20705;-81
2024/01/02 05:49:29;;;;;;;0.90;0.60;;;4.40;99.90;;;;;;5031468;28;20170;-81
2024/01/02 05:51:56;;;;;;;1.20;0.50;;;4.40;99.90;;;;;;5031141;28;20627;-81
2024/01/02 05:54:22;;;;;;;1.00;0.50;;;4.40;99.90;;;;;;5031370;28;20692;-81
2024/01/02 05:56:48;;;;;;;0.53;0.50;;;4.40;99.90;;;;;;5032529;28;20190;-81
2024/01/02 05:59:13;;;;;;;0.40;0.40;;;4.50;99.90;;;;;;5031499;28;20175;-81
2024/01/02 06:01:39;;;;;;;1.07;0.20;;;4.40;99.90;;;;;;5030979;28;20647;-81
2024/01/02 06:04:04;;;;;;;0.77;0.57;;;4.40;99.90;;;;;;5032436;28;20300;-81
2024/01/02 06:06:30;;;;;;;1.33;0.83;;;4.40;99.90;;;;;;5032290;28;20205;-81
2024/01/02 06:08:55;;;;;;;0.30;0.30;;;4.40;99.90;;;;;;5032459;28;20173;-81
2024/01/02 06:11:21;;;;;;;0.40;0.40;;;4.40;99.90;;;;;;5030870;28;20655;-81
2024/01/02 06:13:46;;;;;;;1.13;0.50;;;4.40;99.90;;;;;;5031193;28;20261;-82
2024/01/02 06:16:12;;;;;;;0.40;0.20;;;4.40;99.90;;;;;;5031099;28;20197;-79
2024/01/02 06:18:38;;;;;;;0.20;0.20;;;4.40;99.90;;;;;;5032965;28;20170;-80
2024/01/02 06:21:04;;;;;;;0.93;0.30;;;4.40;99.90;;;;;;5031534;28;20170;-78
2024/01/02 06:23:32;;;;;;;0.10;0.10;;;4.40;99.90;;;;;;5032406;28;20635;-79
2024/01/02 06:25:57;;;;;;;0.10;0.10;;;4.40;99.90;;;;;;5031210;28;20171;-84
2024/01/02 06:28:24;;;;;;;0.37;0.37;;;4.40;99.90;;;;;;5032608;28;20178;-79
2024/01/02 06:30:50;;;;;;;0.40;0.40;;;4.50;99.90;;;;;;5032347;28;20178;-79
2024/01/02 06:33:16;;;;;;;0.27;0.27;;;4.40;99.90;;;;;;5031277;28;20269;-79
2024/01/02 06:35:41;;;;;;;0.20;0.20;;;4.50;99.90;;;;;;5031014;28;20547;-79
2024/01/02 06:38:07;;;;;;;0.10;0.10;;;4.50;99.90;;;;;;5031000;28;20185;-80
2024/01/02 06:40:33;;;;;;;0.20;0.20;;;4.50;99.90;;;;;;5035072;28;20167;-81
2024/01/02 06:42:58;;;;;;;1.27;0.43;;;4.60;99.90;;;;;;5035997;28;20237;-79
2024/01/02 06:45:24;;;;;;;0.20;0.20;;;4.60;99.90;;;;;;5035087;28;20198;-79
2024/01/02 06:47:49;;;;;;;0.00;0.00;;;4.60;99.90;;;;;;5035232;28;20191;-79
2024/01/02 06:50:16;;;;;;;0.30;0.30;;;4.70;99.90;;;;;;5034940;28;20173;-79
2024/01/02 06:52:42;;;;;;;1.27;0.20;;;4.70;99.90;;;;;;5036328;28;20185;-79
2024/01/02 06:55:08;;;;;;;0.40;0.40;;;4.80;99.90;;;;;;5035053;28;20170;-80
2024/01/02 06:57:33;;;;;;;0.37;0.33;;;4.90;99.90;;;;;;5034939;28;20279;-80
2024/01/02 06:59:59;;;;;;;0.30;0.20;;;4.90;99.90;;;;;;5034320;28;20174;-81
2024/01/02 07:02:24;;;;;;;0.30;0.30;;;5.00;99.90;;;;;;5036190;28;20178;-80
2024/01/02 07:04:50;;;;;;;0.40;0.40;;;5.00;99.90;;;;;;5036076;28;20202;-80
2024/01/02 07:07:15;;;;;;;0.10;0.10;;;5.10;99.90;;;;;;5034867;28;20190;-80
2024/01/02 07:09:41;;;;;;;0.20;0.20;;;5.10;99.90;;;;;;5034710;28;20174;-80
2024/01/02 07:12:07;;;;;;;0.30;0.30;;;5.10;99.90;;;;;;5034689;28;20166;-80
2024/01/02 07:14:33;;;;;;;0.20;0.20;;;5.10;99.90;;;;;;5034489;28;20248;-79
2024/01/02 07:16:59;;;;;;;0.27;0.23;;;5.20;99.90;;;;;;5035649;28;20195;-78
2024/01/02 07:19:25;;;;;;;0.73;0.40;;;5.20;99.90;;;;;;5034447;28;20187;-79
2024/01/02 07:21:50;;;;;;;0.53;0.30;;;5.30;99.90;;;;;;5033043;28;20182;-79
2024/01/02 07:24:16;;;;;;;0.57;0.50;;;5.30;99.90;;;;;;5034199;28;20223;-82
2024/01/02 07:26:42;;;;;;;1.40;0.37;;;5.30;99.90;;;;;;5033125;28;20198;-79
2024/01/02 07:29:08;;;;;;;0.50;0.30;;;5.30;99.90;;;;;;5031306;28;20265;-78
2024/01/02 07:31:35;;;;;;;0.40;0.40;;;5.30;99.90;;;;;;5035538;28;20196;-80
2024/01/02 07:34:01;;;;;;;0.40;0.40;;;5.40;99.90;;;;;;5030767;28;20179;-81
2024/01/02 07:36:27;;;;;;;0.30;0.30;;;5.40;99.90;;;;;;5032081;28;20293;-81
2024/01/02 07:38:53;;;;;;;0.37;0.37;;;5.50;99.90;;;;;;5035922;28;20174;-82
2024/01/02 07:41:18;;;;;;;1.03;0.30;;;5.50;99.90;;;;;;5035759;28;20184;-80
2024/01/02 07:43:44;;;;;;;1.97;1.10;;;5.60;99.90;;;;;;5035894;28;20200;-80
2024/01/02 07:46:09;;;;;;;15.77;8.13;;;5.60;99.90;;;;;;5035021;28;20196;-81
2024/01/02 07:48:35;;;;;;;0.83;0.73;;;5.60;99.90;;;;;;5035261;28;20187;-81
2024/01/02 07:51:00;;;;;;;0.50;0.50;;;5.60;99.90;;;;;;5034137;28;20186;-80
2024/01/02 07:53:26;;;;;;;0.60;0.60;;;5.70;99.90;;;;;;5033677;28;20271;-80
2024/01/02 07:55:51;;;;;;;1.13;1.03;;;5.70;99.90;;;;;;5034669;28;20676;-79
2024/01/02 07:58:17;;;;;;;0.80;0.80;;;5.80;99.90;;;;;;5034809;28;20237;-79
2024/01/02 08:00:42;;;;;;;0.90;0.90;;;5.80;99.90;;;;;;5034808;28;20249;-82
2024/01/02 08:03:09;;;;;;;1.13;1.03;;;5.90;99.90;;;;;;5034809;28;20203;-78
2024/01/02 08:05:35;;;;;;;1.00;0.90;;;6.00;99.90;;;;;;5034943;28;20170;-79
2024/01/02 08:08:02;;;;;;;0.80;0.63;;;6.10;99.90;;;;;;5033334;28;20198;-79
2024/01/02 08:10:28;;;;;;;1.03;0.80;;;6.10;99.90;;;;;;5033302;28;20257;-79
2024/01/02 08:12:53;;;;;;;0.80;0.80;;;6.10;99.90;;;;;;5033453;28;20316;-79
2024/01/02 08:15:19;;;;;;;0.40;0.40;;;6.20;99.90;;;;;;5034737;28;20583;-82
2024/01/02 08:17:44;;;;;;;0.90;0.90;;;6.30;99.90;;;;;;5033559;28;20683;-80
2024/01/02 08:20:10;;;;;;;0.50;0.50;;;6.30;99.90;;;;;;5034704;28;20180;-79
2024/01/02 08:22:36;;;;;;;0.60;0.60;;;6.40;99.90;;;;;;5033653;28;20668;-80
2024/01/02 08:25:01;;;;;;;0.70;0.70;;;6.40;99.90;;;;;;5033221;28;20177;-79
2024/01/02 08:27:27;;;;;;;0.50;0.50;;;6.40;99.90;;;;;;5033446;28;20196;-81
2024/01/02 08:29:54;;;;;;;0.50;0.50;;;6.40;99.90;;;;;;5034375;28;20188;-79
2024/01/02 08:32:20;;;;;;;0.50;0.50;;;6.50;99.90;;;;;;5034512;28;20181;-81
2024/01/02 08:34:45;;;;;;;0.70;0.70;;;6.50;99.90;;;;;;5032898;28;20716;-80
2024/01/02 08:37:11;;;;;;;0.57;0.57;;;6.50;99.90;;;;;;5033852;28;20300;-81
2024/01/02 08:39:36;;;;;;;0.60;0.60;;;6.50;99.90;;;;;;5033060;28;20192;-81
2024/01/02 08:42:02;;;;;;;0.80;0.80;;;6.60;99.90;;;;;;5032656;28;20226;-85
2024/01/02 08:44:28;;;;;;;0.60;0.60;;;6.60;99.90;;;;;;5032854;28;20254;-80
2024/01/02 08:46:53;;;;;;;0.67;0.67;;;6.60;99.90;;;;;;5033259;28;20197;-78
2024/01/02 08:49:20;;;;;;;0.37;0.37;;;6.60;99.90;;;;;;5033056;28;20642;-79
2024/01/02 08:51:45;;;;;;;0.60;0.60;;;6.70;99.90;;;;;;5032703;28;20186;-78
2024/01/02 08:54:11;;;;;;;0.60;0.60;;;6.70;99.90;;;;;;5033890;28;20184;-79
2024/01/02 08:56:36;;;;;;;0.67;0.67;;;6.70;99.90;;;;;;5033730;28;20292;-82
2024/01/02 08:59:02;;;;;;;0.50;0.50;;;6.80;99.90;;;;;;5033938;28;20177;-81
2024/01/02 09:01:28;;;;;;;0.43;0.43;;;6.80;99.90;;;;;;5032883;28;20170;-79
2024/01/02 09:03:54;;;;;;;0.50;0.50;;;6.80;99.90;;;;;;5032940;28;20209;-79
2024/01/02 09:06:19;;;;;;;0.50;0.50;;;6.80;99.90;;;;;;5032701;28;20195;-79
2024/01/02 09:08:45;;;;;;;0.60;0.60;;;6.90;99.90;;;;;;5032658;28;20741;-79
2024/01/02 09:11:12;;;;;;;0.60;0.60;;;6.80;99.90;;;;;;5022249;28;20189;-81
2024/01/02 09:13:37;;;;;;;0.70;0.70;;;6.90;99.90;;;;;;5012157;28;20180;-79
2024/01/02 09:16:03;;;;;;;1.23;1.10;;;6.90;99.90;;;;;;5010796;28;20202;-79
2024/01/02 09:18:29;;;;;;;0.90;0.80;;;6.90;99.90;;;;;;5012588;28;20174;-81
2024/01/02 09:20:55;;;;;;;1.40;1.30;;;6.90;99.90;;;;;;5012057;28;20174;-80
2024/01/02 09:23:20;;;;;;;0.80;0.80;;;6.90;99.90;;;;;;5012220;28;20206;-79
2024/01/02 09:25:49;;;;;;;0.70;0.70;;;7.00;99.90;;;;;;5011963;28;20173;-79
2024/01/02 09:28:16;;;;;;;0.70;0.70;;;7.00;99.90;;;;;;5012050;28;20264;-78
2024/01/02 09:30:43;;;;;;;0.60;0.60;;;7.00;99.90;;;;;;5013567;28;20179;-79
2024/01/02 09:33:09;;;;;;;1.03;0.97;;;7.00;99.90;;;;;;5013919;28;20188;-79
2024/01/02 09:35:36;;;;;;;1.10;1.00;;;7.00;99.90;;;;;;5013525;28;20175;-79
2024/01/02 09:38:02;;;;;;;0.90;0.90;;;7.00;99.90;;;;;;5013061;28;20286;-80
2024/01/02 09:40:51;;;;;;;1.20;1.10;;;7.00;99.90;;;;;;5012200;28;20202;-80
2024/01/02 09:43:21;;;;;;;1.67;1.57;;;7.00;99.90;;;;;;5012347;28;20210;-79
2024/01/02 09:46:10;;;;;;;1.20;1.10;;;7.00;99.90;;;;;;5012003;28;20175;-79
2024/01/02 09:48:55;;;;;;;1.20;1.10;;;7.10;99.90;;;;;;5012088;28;20179;-79
2024/01/02 09:51:42;;;;;;;1.23;1.13;;;7.00;99.90;;;;;;5013194;28;20597;-79
2024/01/02 09:54:23;;;;;;;2.10;1.30;;;7.10;99.90;;;;;;5013260;28;20193;-79
2024/01/02 09:57:05;;;;;;;1.20;1.00;;;7.10;99.90;;;;;;5012026;28;20217;-79
2024/01/02 10:00:12;;;;;;;0.97;0.97;;;7.20;99.90;;;;;;5012115;28;20241;-79
2024/01/02 10:03:14;;;;;;;1.17;0.80;;;7.20;99.90;;;;;;5002076;28;20190;-81
2024/01/02 10:05:55;;;;;;;0.90;0.90;;;7.20;99.90;;;;;;5012013;28;20175;-79
2024/01/02 10:08:58;;;;;;;0.80;0.80;;;7.20;99.90;;;;;;5012060;28;20178;-77
2024/01/02 10:11:48;;;;;;;0.70;0.70;;;7.20;99.90;;;;;;5011885;28;20177;-82
2024/01/02 10:14:25;;;;;;;0.70;0.70;;;7.30;99.90;;;;;;5013015;28;20258;-79
2024/01/02 10:17:17;;;;;;;0.70;0.70;;;7.30;99.90;;;;;;5012890;28;20210;-80
2024/01/02 10:20:03;;;;;;;0.80;0.80;;;7.30;99.90;;;;;;5012900;28;20644;-79
2024/01/02 10:22:31;;;;;;;0.77;0.73;;;7.30;99.90;;;;;;5012970;28;20174;-79
2024/01/02 10:25:08;;;;;;;1.10;0.70;;;7.40;99.90;;;;;;5012753;28;20318;-79
2024/01/02 10:27:51;;;;;;;0.87;0.80;;;7.40;99.90;;;;;;5012851;28;20612;-79
2024/01/02 10:30:21;;;;;;;0.80;0.80;;;7.30;99.90;;;;;;5011168;28;20233;-79
2024/01/02 10:33:16;;;;;;;0.70;0.70;;;7.40;99.90;;;;;;5012924;28;20254;-81
2024/01/02 10:35:50;;;;;;;0.60;0.60;;;7.40;99.90;;;;;;5010985;28;20183;-79
2024/01/02 10:38:28;;;;;;;0.60;0.60;;;7.40;99.90;;;;;;5029065;23;20226;-80
2024/01/02 10:41:36;;;;;;;0.83;0.70;;;7.40;99.90;;;;;;5011893;28;20265;-80
2024/01/02 10:44:10;;;;;;;0.70;0.60;;;7.50;99.90;;;;;;5006113;28;20215;-80
2024/01/02 10:46:47;;;;;;;0.73;0.73;;;7.50;99.90;;;;;;5012791;28;20199;-80
2024/01/02 10:49:39;;;;;;;0.70;0.57;;;7.50;99.90;;;;;;5013467;28;20174;-80
2024/01/02 10:52:50;;;;;;;0.43;0.40;;;7.50;99.90;;;;;;5014722;28;20160;-80
2024/01/02 10:55:16;;;;;;;1.50;0.90;;;7.50;99.90;;;;;;5012589;28;20224;-80
2024/01/02 10:58:10;;;;;;;0.60;0.60;;;7.50;99.90;;;;;;5014075;28;20274;-80
2024/01/02 11:00:52;;;;;;;0.60;0.60;;;7.50;99.90;;;;;;5012337;28;20178;-80
2024/01/02 11:03:25;;;;;;;1.97;0.70;;;7.50;99.90;;;;;;5013627;28;20286;-80
2024/01/02 11:06:11;;;;;;;0.67;0.67;;;7.50;99.90;;;;;;5012130;28;20182;-82
2024/01/02 11:08:49;;;;;;;0.80;0.80;;;7.50;99.90;;;;;;5008321;28;20177;-80
2024/01/02 11:11:16;;;;;;;0.80;0.80;;;7.50;99.90;;;;;;5006190;28;20198;-81
2024/01/02 11:13:43;;;;;;;0.67;0.67;;;7.50;99.90;;;;;;5005601;28;20284;-80
2024/01/02 11:16:17;;;;;;;0.80;0.80;;;7.50;99.90;;;;;;5015506;28;20182;-82
2024/01/02 11:18:46;;;;;;;0.73;0.73;;;7.50;99.90;;;;;;5011636;28;20183;-81
2024/01/02 11:21:30;;;;;;;0.80;0.80;;;7.50;99.90;;;;;;5009389;28;20178;-81
2024/01/02 11:24:00;;;;;;;0.70;0.70;;;7.60;99.90;;;;;;5015743;28;20195;-81
2024/01/02 11:26:29;;;;;;;0.70;0.70;;;7.60;99.90;;;;;;5016576;28;20179;-81
2024/01/02 11:28:58;;;;;;;1.13;0.70;;;7.60;99.90;;;;;;5017300;28;20175;-83
2024/01/02 11:31:26;;;;;;;1.13;0.80;;;7.60;99.90;;;;;;5019769;28;20168;-81
2024/01/02 11:33:54;;;;;;;1.10;1.00;;;7.60;99.90;;;;;;5017390;28;20183;-82
2024/01/02 11:36:40;;;;;;;0.83;0.83;;;7.60;99.90;;;;;;5023827;28;20644;-81
2024/01/02 11:39:12;;;;;;;0.90;0.90;;;7.60;99.90;;;;;;5017556;28;20256;-82
2024/01/02 11:41:55;;;;;;;1.27;1.10;;;7.60;99.90;;;;;;5015192;28;20675;-82
2024/01/02 11:44:48;;;;;;;1.60;1.30;;;7.50;99.90;;;;;;5014882;28;20204;-80
2024/01/02 11:47:43;;;;;;;1.13;1.03;;;7.60;99.90;;;;;;5015772;28;20230;-87
2024/01/02 11:50:10;;;;;;;1.47;1.33;;;7.60;99.90;;;;;;5014893;28;20179;-87
2024/01/02 11:53:02;;;;;;;1.60;0.93;;;7.70;99.90;;;;;;5013593;28;20262;-86
2024/01/02 11:55:43;;;;;;;1.30;1.20;;;7.70;99.90;;;;;;4995191;28;20198;-87
2024/01/02 11:58:21;;;;;;;1.40;1.10;;;7.70;99.90;;;;;;4994003;28;20250;-87
2024/01/02 12:00:58;;;;;;;1.10;1.00;;;7.70;99.90;;;;;;4993811;28;20199;-87
2024/01/02 12:03:41;;;;;;;0.80;0.80;;;7.70;99.90;;;;;;4994025;28;20207;-86
2024/01/02 12:06:24;;;;;;;0.90;0.90;;;7.70;99.90;;;;;;4999042;28;20191;-87
2024/01/02 12:08:59;;;;;;;1.67;1.17;;;7.70;99.90;;;;;;4995337;28;20175;-87
2024/01/02 12:11:28;;;;;;;1.10;1.00;;;7.70;99.90;;;;;;4993774;28;20171;-86
2024/01/02 12:14:09;;;;;;;1.83;1.40;;;7.80;99.90;;;;;;4993602;28;20713;-86
2024/01/02 12:16:39;;;;;;;1.03;0.93;;;7.80;99.90;;;;;;4994965;28;20196;-87
2024/01/02 12:19:07;;;;;;;1.00;0.90;;;7.80;99.90;;;;;;4993710;28;20180;-86
2024/01/02 12:21:37;;;;;;;1.07;0.97;;;7.80;99.90;;;;;;4994721;28;20184;-87
2024/01/02 12:24:04;;;;;;;1.40;1.30;;;7.90;99.90;;;;;;5004756;28;20696;-87
2024/01/02 12:26:36;;;;;;;0.80;0.80;;;7.90;99.90;;;;;;5010102;28;20203;-86
2024/01/02 12:29:02;;;;;;;0.80;0.80;;;7.90;99.90;;;;;;5012973;28;20178;-86
2024/01/02 12:31:49;;;;;;;0.73;0.73;;;7.90;99.90;;;;;;5004861;28;20182;-87
2024/01/02 12:34:44;;;;;;;0.90;0.90;;;7.90;99.90;;;;;;5012897;28;20313;-86
2024/01/02 12:37:23;;;;;;;1.33;1.23;;;7.90;99.90;;;;;;5012485;28;20280;-86
2024/01/02 12:39:52;;;;;;;1.30;1.20;;;7.90;99.90;;;;;;5012901;28;20172;-87
2024/01/02 12:42:21;;;;;;;1.00;0.90;;;7.90;99.90;;;;;;5012743;28;20182;-86
2024/01/02 12:44:50;;;;;;;0.90;0.90;;;7.90;99.90;;;;;;5012840;28;20207;-85
2024/01/02 12:47:22;;;;;;;1.23;0.90;;;7.90;99.90;;;;;;5012931;28;20256;-86
2024/01/02 12:50:08;;;;;;;1.10;1.00;;;7.90;99.90;;;;;;5012630;28;20179;-85
2024/01/02 12:52:48;;;;;;;0.70;0.70;;;7.80;99.90;;;;;;4996625;28;20217;-86
2024/01/02 12:55:18;;;;;;;0.70;0.70;;;7.80;99.90;;;;;;4994790;28;20179;-86
2024/01/02 12:57:43;;;;;;;0.90;0.90;;;7.70;99.90;;;;;;4994043;28;20550;-86
2024/01/02 13:00:12;;;;;;;1.03;0.73;;;7.70;99.90;;;;;;4992708;28;20174;-86
2024/01/02 13:02:39;;;;;;;0.60;0.60;;;7.70;99.90;;;;;;4995711;28;20562;-81
2024/01/02 13:05:07;;;;;;;0.70;0.70;;;7.70;99.90;;;;;;4998771;28;20690;-81
2024/01/02 13:07:36;;;;;;;1.17;0.70;;;7.70;99.90;;;;;;4997560;28;20219;-81